sensor_id;sensor_type;location;lat;lon;timestamp;P1;durP1;ratioP1;P2;durP2;ratioP2
21517;SDS011;61765;45.794;24.150;2022-09-13T00:04:22;3.85;;;3.35;;
21517;SDS011;61765;45.794;24.150;2022-09-13T00:12:30;6.07;;;3.55;;
21517;SDS011;61765;45.794;24.150;2022-09-13T00:20:36;3.50;;;3.20;;
21517;SDS011;61765;45.794;24.150;2022-09-13T00:28:46;4.47;;;3.20;;
21517;SDS011;61765;45.794;24.150;2022-09-13T00:36:54;6.05;;;3.10;;
21517;SDS011;61765;45.794;24.150;2022-09-13T00:45:07;7.55;;;3.28;;
21517;SDS011;61765;45.794;24.150;2022-09-13T00:53:20;6.57;;;3.33;;
21517;SDS011;61765;45.794;24.150;2022-09-13T01:01:35;5.15;;;3.20;;
21517;SDS011;61765;45.794;24.150;2022-09-13T01:09:46;4.90;;;3.40;;
21517;SDS011;61765;45.794;24.150;2022-09-13T01:17:56;3.72;;;3.30;;
21517;SDS011;61765;45.794;24.150;2022-09-13T01:26:16;6.20;;;3.72;;
21517;SDS011;61765;45.794;24.150;2022-09-13T01:34:42;6.55;;;4.60;;
21517;SDS011;61765;45.794;24.150;2022-09-13T01:43:00;5.28;;;4.13;;
21517;SDS011;61765;45.794;24.150;2022-09-13T01:51:22;8.32;;;4.35;;
21517;SDS011;61765;45.794;24.150;2022-09-13T01:59:35;6.68;;;3.65;;
21517;SDS011;61765;45.794;24.150;2022-09-13T02:07:52;8.50;;;4.50;;
21517;SDS011;61765;45.794;24.150;2022-09-13T02:16:04;5.60;;;3.95;;
21517;SDS011;61765;45.794;24.150;2022-09-13T02:24:18;9.05;;;3.70;;
21517;SDS011;61765;45.794;24.150;2022-09-13T02:32:29;12.60;;;4.47;;
21517;SDS011;61765;45.794;24.150;2022-09-13T02:40:41;7.90;;;4.40;;
21517;SDS011;61765;45.794;24.150;2022-09-13T02:48:55;3.90;;;3.50;;
21517;SDS011;61765;45.794;24.150;2022-09-13T02:57:07;8.98;;;4.25;;
21517;SDS011;61765;45.794;24.150;2022-09-13T03:05:17;6.20;;;3.67;;
21517;SDS011;61765;45.794;24.150;2022-09-13T03:22:17;10.57;;;4.15;;
21517;SDS011;61765;45.794;24.150;2022-09-13T03:30:36;7.63;;;4.10;;
21517;SDS011;61765;45.794;24.150;2022-09-13T03:38:46;6.43;;;4.18;;
21517;SDS011;61765;45.794;24.150;2022-09-13T03:47:02;6.25;;;4.32;;
21517;SDS011;61765;45.794;24.150;2022-09-13T03:55:09;8.57;;;3.60;;
21517;SDS011;61765;45.794;24.150;2022-09-13T04:03:17;5.82;;;3.70;;
21517;SDS011;61765;45.794;24.150;2022-09-13T04:11:23;5.82;;;4.35;;
21517;SDS011;61765;45.794;24.150;2022-09-13T04:19:31;6.97;;;4.07;;
21517;SDS011;61765;45.794;24.150;2022-09-13T04:27:37;7.90;;;4.07;;
21517;SDS011;61765;45.794;24.150;2022-09-13T04:35:45;9.32;;;4.80;;
21517;SDS011;61765;45.794;24.150;2022-09-13T04:43:50;8.35;;;4.95;;
21517;SDS011;61765;45.794;24.150;2022-09-13T04:51:58;10.93;;;5.32;;
21517;SDS011;61765;45.794;24.150;2022-09-13T05:00:04;10.07;;;5.30;;
21517;SDS011;61765;45.794;24.150;2022-09-13T05:08:14;7.35;;;5.22;;
21517;SDS011;61765;45.794;24.150;2022-09-13T05:16:19;7.40;;;5.25;;
21517;SDS011;61765;45.794;24.150;2022-09-13T05:24:28;9.93;;;5.25;;
21517;SDS011;61765;45.794;24.150;2022-09-13T05:32:33;10.50;;;6.22;;
21517;SDS011;61765;45.794;24.150;2022-09-13T05:40:41;11.60;;;6.88;;
21517;SDS011;61765;45.794;24.150;2022-09-13T05:48:47;11.57;;;6.55;;
21517;SDS011;61765;45.794;24.150;2022-09-13T05:56:55;11.88;;;6.70;;
21517;SDS011;61765;45.794;24.150;2022-09-13T06:05:00;11.18;;;6.47;;
21517;SDS011;61765;45.794;24.150;2022-09-13T06:13:09;8.57;;;5.88;;
21517;SDS011;61765;45.794;24.150;2022-09-13T06:21:15;10.35;;;6.50;;
21517;SDS011;61765;45.794;24.150;2022-09-13T06:29:31;8.57;;;4.70;;
21517;SDS011;61765;45.794;24.150;2022-09-13T06:37:36;9.90;;;5.05;;
21517;SDS011;61765;45.794;24.150;2022-09-13T06:45:44;8.27;;;4.80;;
21517;SDS011;61765;45.794;24.150;2022-09-13T06:53:50;8.05;;;4.47;;
21517;SDS011;61765;45.794;24.150;2022-09-13T07:02:00;4.47;;;3.35;;
21517;SDS011;61765;45.794;24.150;2022-09-13T07:10:05;5.63;;;2.55;;
21517;SDS011;61765;45.794;24.150;2022-09-13T07:18:14;5.15;;;3.72;;
21517;SDS011;61765;45.794;24.150;2022-09-13T07:26:20;4.45;;;3.95;;
21517;SDS011;61765;45.794;24.150;2022-09-13T07:34:28;6.57;;;3.55;;
21517;SDS011;61765;45.794;24.150;2022-09-13T07:42:34;5.78;;;3.30;;
21517;SDS011;61765;45.794;24.150;2022-09-13T07:50:42;6.50;;;3.83;;
21517;SDS011;61765;45.794;24.150;2022-09-13T07:58:48;5.60;;;3.47;;
21517;SDS011;61765;45.794;24.150;2022-09-13T08:06:58;4.13;;;3.28;;
21517;SDS011;61765;45.794;24.150;2022-09-13T08:15:04;3.78;;;3.20;;
21517;SDS011;61765;45.794;24.150;2022-09-13T08:23:12;5.57;;;2.63;;
21517;SDS011;61765;45.794;24.150;2022-09-13T08:31:18;9.75;;;3.10;;
21517;SDS011;61765;45.794;24.150;2022-09-13T08:39:26;3.00;;;2.67;;
21517;SDS011;61765;45.794;24.150;2022-09-13T08:47:37;6.22;;;2.85;;
21517;SDS011;61765;45.794;24.150;2022-09-13T08:55:56;5.20;;;3.03;;
21517;SDS011;61765;45.794;24.150;2022-09-13T09:04:09;5.18;;;2.72;;
21517;SDS011;61765;45.794;24.150;2022-09-13T09:12:25;7.05;;;2.88;;
21517;SDS011;61765;45.794;24.150;2022-09-13T09:20:36;9.10;;;2.70;;
21517;SDS011;61765;45.794;24.150;2022-09-13T09:28:48;10.32;;;2.22;;
21517;SDS011;61765;45.794;24.150;2022-09-13T09:36:59;2.58;;;1.90;;
21517;SDS011;61765;45.794;24.150;2022-09-13T09:45:22;4.45;;;2.47;;
21517;SDS011;61765;45.794;24.150;2022-09-13T09:53:31;6.18;;;1.90;;
21517;SDS011;61765;45.794;24.150;2022-09-13T10:01:44;5.20;;;1.90;;
21517;SDS011;61765;45.794;24.150;2022-09-13T10:09:54;3.70;;;1.50;;
21517;SDS011;61765;45.794;24.150;2022-09-13T10:18:15;2.92;;;1.50;;
21517;SDS011;61765;45.794;24.150;2022-09-13T10:26:41;2.55;;;1.33;;
21517;SDS011;61765;45.794;24.150;2022-09-13T10:34:49;1.65;;;1.50;;
21517;SDS011;61765;45.794;24.150;2022-09-13T10:42:59;1.38;;;1.20;;
21517;SDS011;61765;45.794;24.150;2022-09-13T10:51:14;2.67;;;1.13;;
21517;SDS011;61765;45.794;24.150;2022-09-13T10:59:27;1.98;;;1.58;;
21517;SDS011;61765;45.794;24.150;2022-09-13T11:07:48;1.88;;;1.10;;
21517;SDS011;61765;45.794;24.150;2022-09-13T11:16:19;3.35;;;1.48;;
21517;SDS011;61765;45.794;24.150;2022-09-13T11:24:44;2.08;;;1.42;;
21517;SDS011;61765;45.794;24.150;2022-09-13T11:33:18;1.58;;;1.40;;
21517;SDS011;61765;45.794;24.150;2022-09-13T11:41:36;2.17;;;1.67;;
21517;SDS011;61765;45.794;24.150;2022-09-13T11:49:50;2.88;;;1.40;;
21517;SDS011;61765;45.794;24.150;2022-09-13T11:58:10;8.80;;;2.50;;
21517;SDS011;61765;45.794;24.150;2022-09-13T12:14:29;3.60;;;2.33;;
21517;SDS011;61765;45.794;24.150;2022-09-13T12:22:45;4.18;;;1.83;;
21517;SDS011;61765;45.794;24.150;2022-09-13T12:30:56;2.28;;;1.50;;
21517;SDS011;61765;45.794;24.150;2022-09-13T12:47:45;2.72;;;1.77;;
21517;SDS011;61765;45.794;24.150;2022-09-13T12:56:09;2.80;;;1.48;;
21517;SDS011;61765;45.794;24.150;2022-09-13T13:04:32;3.60;;;1.60;;
21517;SDS011;61765;45.794;24.150;2022-09-13T13:12:39;2.85;;;1.40;;
21517;SDS011;61765;45.794;24.150;2022-09-13T13:21:03;2.50;;;1.30;;
21517;SDS011;61765;45.794;24.150;2022-09-13T13:29:11;2.05;;;1.52;;
21517;SDS011;61765;45.794;24.150;2022-09-13T13:37:33;2.55;;;1.30;;
21517;SDS011;61765;45.794;24.150;2022-09-13T13:45:42;6.47;;;2.05;;
21517;SDS011;61765;45.794;24.150;2022-09-13T13:54:27;2.08;;;1.75;;
21517;SDS011;61765;45.794;24.150;2022-09-13T14:02:36;1.50;;;1.15;;
21517;SDS011;61765;45.794;24.150;2022-09-13T14:10:51;3.00;;;1.80;;
21517;SDS011;61765;45.794;24.150;2022-09-13T14:19:08;2.40;;;1.42;;
21517;SDS011;61765;45.794;24.150;2022-09-13T14:27:28;2.85;;;1.48;;
21517;SDS011;61765;45.794;24.150;2022-09-13T14:35:35;2.17;;;1.60;;
21517;SDS011;61765;45.794;24.150;2022-09-13T14:43:45;4.40;;;1.27;;
21517;SDS011;61765;45.794;24.150;2022-09-13T14:51:54;3.83;;;1.38;;
21517;SDS011;61765;45.794;24.150;2022-09-13T15:00:06;1.70;;;1.25;;
21517;SDS011;61765;45.794;24.150;2022-09-13T15:08:38;1.27;;;1.08;;
21517;SDS011;61765;45.794;24.150;2022-09-13T15:16:51;3.70;;;2.47;;
21517;SDS011;61765;45.794;24.150;2022-09-13T15:24:58;2.65;;;1.65;;
21517;SDS011;61765;45.794;24.150;2022-09-13T15:33:16;2.58;;;1.60;;
21517;SDS011;61765;45.794;24.150;2022-09-13T15:41:27;2.25;;;1.42;;
21517;SDS011;61765;45.794;24.150;2022-09-13T15:49:37;1.50;;;1.40;;
21517;SDS011;61765;45.794;24.150;2022-09-13T15:57:44;3.28;;;1.73;;
21517;SDS011;61765;45.794;24.150;2022-09-13T16:05:52;6.18;;;3.88;;
21517;SDS011;61765;45.794;24.150;2022-09-13T16:13:58;5.90;;;3.05;;
21517;SDS011;61765;45.794;24.150;2022-09-13T16:22:06;4.13;;;2.00;;
21517;SDS011;61765;45.794;24.150;2022-09-13T16:30:14;2.15;;;1.77;;
21517;SDS011;61765;45.794;24.150;2022-09-13T16:38:25;1.55;;;1.42;;
21517;SDS011;61765;45.794;24.150;2022-09-13T16:46:33;2.63;;;1.48;;
21517;SDS011;61765;45.794;24.150;2022-09-13T16:54:42;4.30;;;1.52;;
21517;SDS011;61765;45.794;24.150;2022-09-13T17:02:50;2.42;;;1.70;;
21517;SDS011;61765;45.794;24.150;2022-09-13T17:10:58;6.75;;;1.90;;
21517;SDS011;61765;45.794;24.150;2022-09-13T17:19:05;5.63;;;2.15;;
21517;SDS011;61765;45.794;24.150;2022-09-13T17:27:14;3.13;;;1.83;;
21517;SDS011;61765;45.794;24.150;2022-09-13T17:35:20;4.82;;;2.05;;
21517;SDS011;61765;45.794;24.150;2022-09-13T17:43:28;3.55;;;2.25;;
21517;SDS011;61765;45.794;24.150;2022-09-13T17:51:34;4.32;;;2.00;;
21517;SDS011;61765;45.794;24.150;2022-09-13T17:59:42;5.68;;;2.45;;
21517;SDS011;61765;45.794;24.150;2022-09-13T18:07:48;6.63;;;2.70;;
21517;SDS011;61765;45.794;24.150;2022-09-13T18:16:01;5.93;;;2.60;;
21517;SDS011;61765;45.794;24.150;2022-09-13T18:24:11;4.90;;;3.50;;
21517;SDS011;61765;45.794;24.150;2022-09-13T18:32:19;6.15;;;3.60;;
21517;SDS011;61765;45.794;24.150;2022-09-13T18:40:24;8.68;;;3.90;;
21517;SDS011;61765;45.794;24.150;2022-09-13T18:48:33;4.57;;;3.58;;
21517;SDS011;61765;45.794;24.150;2022-09-13T18:56:40;7.05;;;3.95;;
21517;SDS011;61765;45.794;24.150;2022-09-13T19:04:49;10.32;;;3.50;;
21517;SDS011;61765;45.794;24.150;2022-09-13T19:12:54;9.48;;;3.65;;
21517;SDS011;61765;45.794;24.150;2022-09-13T19:21:03;7.20;;;3.72;;
21517;SDS011;61765;45.794;24.150;2022-09-13T19:29:15;6.63;;;3.92;;
21517;SDS011;61765;45.794;24.150;2022-09-13T19:37:24;11.23;;;4.03;;
21517;SDS011;61765;45.794;24.150;2022-09-13T19:45:29;12.30;;;4.78;;
21517;SDS011;61765;45.794;24.150;2022-09-13T19:53:37;10.50;;;4.53;;
21517;SDS011;61765;45.794;24.150;2022-09-13T20:01:58;18.07;;;4.60;;
21517;SDS011;61765;45.794;24.150;2022-09-13T20:10:08;9.80;;;4.05;;
21517;SDS011;61765;45.794;24.150;2022-09-13T20:18:14;15.13;;;5.20;;
21517;SDS011;61765;45.794;24.150;2022-09-13T20:26:23;13.10;;;5.43;;
21517;SDS011;61765;45.794;24.150;2022-09-13T20:34:29;12.75;;;5.10;;
21517;SDS011;61765;45.794;24.150;2022-09-13T20:42:38;9.98;;;5.50;;
21517;SDS011;61765;45.794;24.150;2022-09-13T20:50:43;11.85;;;6.57;;
21517;SDS011;61765;45.794;24.150;2022-09-13T20:59:01;8.48;;;5.10;;
21517;SDS011;61765;45.794;24.150;2022-09-13T21:07:07;8.10;;;5.57;;
21517;SDS011;61765;45.794;24.150;2022-09-13T21:15:29;6.45;;;4.80;;
21517;SDS011;61765;45.794;24.150;2022-09-13T21:23:36;10.63;;;5.00;;
21517;SDS011;61765;45.794;24.150;2022-09-13T21:31:44;9.70;;;5.20;;
21517;SDS011;61765;45.794;24.150;2022-09-13T21:39:50;9.75;;;4.82;;
21517;SDS011;61765;45.794;24.150;2022-09-13T21:47:58;8.23;;;4.68;;
21517;SDS011;61765;45.794;24.150;2022-09-13T21:56:04;11.90;;;5.85;;
21517;SDS011;61765;45.794;24.150;2022-09-13T22:04:14;8.25;;;6.35;;
21517;SDS011;61765;45.794;24.150;2022-09-13T22:12:20;11.00;;;6.43;;
21517;SDS011;61765;45.794;24.150;2022-09-13T22:20:28;12.80;;;5.13;;
21517;SDS011;61765;45.794;24.150;2022-09-13T22:28:34;6.55;;;4.72;;
21517;SDS011;61765;45.794;24.150;2022-09-13T22:36:42;6.80;;;4.18;;
21517;SDS011;61765;45.794;24.150;2022-09-13T22:44:48;7.53;;;3.80;;
21517;SDS011;61765;45.794;24.150;2022-09-13T22:52:56;4.13;;;3.40;;
21517;SDS011;61765;45.794;24.150;2022-09-13T23:01:02;4.80;;;3.05;;
21517;SDS011;61765;45.794;24.150;2022-09-13T23:09:12;4.57;;;3.33;;
21517;SDS011;61765;45.794;24.150;2022-09-13T23:17:19;3.75;;;3.00;;
21517;SDS011;61765;45.794;24.150;2022-09-13T23:25:27;5.70;;;3.05;;
21517;SDS011;61765;45.794;24.150;2022-09-13T23:33:32;6.63;;;4.15;;
21517;SDS011;61765;45.794;24.150;2022-09-13T23:41:40;7.38;;;3.20;;
21517;SDS011;61765;45.794;24.150;2022-09-13T23:49:46;6.03;;;3.60;;
21517;SDS011;61765;45.794;24.150;2022-09-13T23:57:55;7.20;;;3.20;;
